createdAt,value
2018-07-09T07:26:30.064Z,23.50
2018-07-09T07:27:32.511Z,23.59
2018-07-09T07:28:35.031Z,23.66
2018-07-09T07:29:37.473Z,23.78
2018-07-09T07:30:39.909Z,23.89
2018-07-09T07:31:42.674Z,23.97
2018-07-09T07:32:45.125Z,24.05
2018-07-09T07:33:47.578Z,24.20
2018-07-09T07:34:50.035Z,24.23
2018-07-09T07:35:52.469Z,24.22
2018-07-09T07:36:54.943Z,24.25
2018-07-09T07:37:57.401Z,24.28
2018-07-09T07:39:00.613Z,24.28
2018-07-09T07:40:03.041Z,24.36
2018-07-09T07:41:06.161Z,24.31
2018-07-09T07:42:08.589Z,24.26
2018-07-09T07:43:11.346Z,24.27
2018-07-09T07:44:13.816Z,24.37
2018-07-09T07:45:17.181Z,24.35
2018-07-09T07:46:19.615Z,24.38
2018-07-09T07:47:22.051Z,24.29
2018-07-09T07:48:24.581Z,24.26
2018-07-09T07:49:27.378Z,24.30
2018-07-09T07:50:29.951Z,24.21
2018-07-09T07:51:32.312Z,24.12
2018-07-09T07:52:34.739Z,24.13
2018-07-09T07:53:37.244Z,24.10
2018-07-09T07:54:40.489Z,24.14
2018-07-09T07:55:43.386Z,24.16
2018-07-09T07:56:45.851Z,24.16
2018-07-09T07:57:48.349Z,24.13
2018-07-09T07:58:50.775Z,24.18
2018-07-09T07:59:53.209Z,24.25
2018-07-09T08:00:55.669Z,24.27
2018-07-09T08:01:58.556Z,24.52
2018-07-09T08:03:01.017Z,24.49
2018-07-09T08:04:03.947Z,24.41
2018-07-09T08:05:06.431Z,24.38
2018-07-09T08:06:10.642Z,24.41
2018-07-09T08:07:13.337Z,24.38
2018-07-09T08:08:16.078Z,24.29
2018-07-09T08:09:18.590Z,24.30
2018-07-09T08:10:20.983Z,24.33
2018-07-09T08:11:47.724Z,24.48
2018-07-09T08:13:58.694Z,24.39
2018-07-09T08:15:01.553Z,24.38
2018-07-09T08:16:04.049Z,24.35
2018-07-09T08:17:07.482Z,24.23
2018-07-09T08:18:10.670Z,24.28
2018-07-09T08:19:14.216Z,24.34
2018-07-09T08:20:16.711Z,24.47
2018-07-09T08:21:19.676Z,24.48
2018-07-09T08:22:22.570Z,24.47
2018-07-09T08:23:25.231Z,24.42
2018-07-09T08:24:27.717Z,24.38
2018-07-09T08:25:30.226Z,24.38
2018-07-09T09:06:48.382Z,24.34
2018-07-09T09:07:51.053Z,24.42
2018-07-09T09:08:53.529Z,24.54
2018-07-09T09:09:55.988Z,24.67
2018-07-09T09:10:58.409Z,24.73
2018-07-09T09:12:01.302Z,24.79
2018-07-09T09:13:03.791Z,24.84
2018-07-09T09:14:06.215Z,24.85
2018-07-09T09:15:08.640Z,24.87
2018-07-09T09:16:11.185Z,24.88
2018-07-09T09:17:13.640Z,24.90
2018-07-09T09:18:18.663Z,24.88
2018-07-09T09:19:21.126Z,24.86
2018-07-09T09:20:23.548Z,24.85
2018-07-09T09:21:25.975Z,24.84
2018-07-09T09:22:28.434Z,24.85
2018-07-09T09:23:32.063Z,24.87
2018-07-09T09:24:35.821Z,24.85
2018-07-09T09:25:39.342Z,24.88
2018-07-09T09:26:41.781Z,24.88
2018-07-09T09:27:44.209Z,24.88
2018-07-09T09:28:46.787Z,24.88
2018-07-09T09:29:51.290Z,24.90
2018-07-09T09:30:55.440Z,24.91
2018-07-09T09:31:57.894Z,24.88
2018-07-09T09:33:00.509Z,24.90
2018-07-09T09:34:03.832Z,24.93
2018-07-09T09:35:07.434Z,24.93
2018-07-09T09:36:10.512Z,24.95
2018-07-09T09:37:13.369Z,25.00
2018-07-09T09:38:16.452Z,25.14
2018-07-09T09:39:19.682Z,25.20
2018-07-09T09:40:22.706Z,25.22
2018-07-09T09:41:25.178Z,25.16
2018-07-09T09:42:28.141Z,25.18
2018-07-09T09:43:31.057Z,24.80
2018-07-09T09:44:34.457Z,25.20
2018-07-09T09:45:36.884Z,25.23
2018-07-09T09:46:39.337Z,25.23
2018-07-09T09:47:41.795Z,25.23
2018-07-09T09:48:44.252Z,25.26
2018-07-09T09:49:47.101Z,25.23
2018-07-09T09:50:49.515Z,25.33
2018-07-09T09:51:51.951Z,25.29
2018-07-09T09:52:54.594Z,24.58
2018-07-09T09:53:57.078Z,25.29
2018-07-09T09:54:59.573Z,25.30
2018-07-09T09:56:02.338Z,25.32
2018-07-09T09:57:06.388Z,25.30
2018-07-09T09:58:09.473Z,25.31
2018-07-09T09:59:12.217Z,25.30
2018-07-09T10:00:15.541Z,25.26
2018-07-09T10:01:18.415Z,25.24
2018-07-09T10:02:21.604Z,24.90
2018-07-09T10:03:24.067Z,25.28
2018-07-09T10:04:26.498Z,25.27
2018-07-09T10:05:28.964Z,25.23
2018-07-09T10:06:31.433Z,25.23
2018-07-09T10:07:34.559Z,25.24
2018-07-09T10:08:37.374Z,25.30
2018-07-09T10:09:39.923Z,25.30
2018-07-09T10:10:42.402Z,25.32
2018-07-09T10:11:44.859Z,25.31
2018-07-09T10:12:48.048Z,25.31
2018-07-09T10:13:50.869Z,25.33
2018-07-09T10:14:54.862Z,25.33
2018-07-09T10:15:57.569Z,25.32
2018-07-09T10:17:00.080Z,24.99
2018-07-09T10:18:04.333Z,25.30
2018-07-09T10:19:07.675Z,25.29
2018-07-09T10:20:10.129Z,25.29
2018-07-09T10:21:13.093Z,25.30
2018-07-09T10:22:15.640Z,25.31
2018-07-09T10:23:19.713Z,25.29
2018-07-09T10:24:22.263Z,25.28
2018-07-09T10:25:24.745Z,25.32
2018-07-09T10:26:27.288Z,25.37
2018-07-09T10:27:30.280Z,25.37
2018-07-09T10:28:32.748Z,25.34
2018-07-09T10:29:36.223Z,25.37
2018-07-09T10:30:38.724Z,25.37
2018-07-09T10:31:41.268Z,25.40
2018-07-09T10:33:53.811Z,25.26
2018-07-09T10:34:56.241Z,25.24
2018-07-09T10:35:59.329Z,25.27
2018-07-09T10:37:02.550Z,25.29
2018-07-09T10:38:05.999Z,25.28
2018-07-09T10:39:08.430Z,25.20
2018-07-09T10:40:14.404Z,25.17
2018-07-09T10:41:16.868Z,25.17
2018-07-09T10:42:19.275Z,25.15
2018-07-09T10:43:21.723Z,25.16
2018-07-09T10:44:24.361Z,25.13
2018-07-09T10:45:29.039Z,25.15
2018-07-09T10:46:32.005Z,25.13
2018-07-09T10:47:34.431Z,25.20
2018-07-09T10:48:40.016Z,25.23
2018-07-09T10:49:45.663Z,25.27
2018-07-09T10:50:49.188Z,25.20
2018-07-09T10:51:51.639Z,25.26
2018-07-09T10:52:54.435Z,25.24
2018-07-09T10:53:59.824Z,25.25
2018-07-09T10:55:02.276Z,25.23
2018-07-09T10:56:06.090Z,25.23
2018-07-09T10:57:12.509Z,25.23
2018-07-09T10:58:15.759Z,25.32
2018-07-09T10:59:19.655Z,25.26
2018-07-09T11:00:22.840Z,25.25
2018-07-09T11:04:02.763Z,25.10
2018-07-09T11:05:08.318Z,25.26
2018-07-09T11:06:11.158Z,25.37
2018-07-09T20:36:41.503Z,24.68
2018-07-09T20:37:47.211Z,24.78
2018-07-09T20:39:40.375Z,24.61
2018-07-09T20:40:43.090Z,24.79
2018-07-09T20:41:46.215Z,25.28
2018-07-09T20:42:48.625Z,25.36
2018-07-09T20:43:51.071Z,25.45
2018-07-09T20:44:54.340Z,25.51
2018-07-09T20:45:56.760Z,25.55
2018-07-09T20:46:59.200Z,25.62
2018-07-09T20:48:06.456Z,25.65
2018-07-09T20:49:08.904Z,25.63
2018-07-09T20:50:12.373Z,25.67
2018-07-09T20:51:14.796Z,25.68
2018-07-09T20:52:17.268Z,25.69
2018-07-09T20:53:19.679Z,25.71
2018-07-09T20:54:24.515Z,25.26
2018-07-09T20:55:28.328Z,25.73
2018-07-09T20:56:33.017Z,25.77
2018-07-09T20:57:35.486Z,25.77
2018-07-09T20:58:38.972Z,25.72
2018-07-09T20:59:43.068Z,25.74
2018-07-09T21:00:47.303Z,25.75
2018-07-09T21:01:51.374Z,25.73
2018-07-09T21:02:53.986Z,25.73
2018-07-09T21:03:56.572Z,25.75
2018-07-09T21:04:59.203Z,25.74
2018-07-09T21:06:02.483Z,25.72
2018-07-09T21:07:06.396Z,25.75
2018-07-09T21:08:12.528Z,25.77
2018-07-09T21:09:15.591Z,25.81
2018-07-09T21:10:18.285Z,25.78
2018-07-09T21:11:20.801Z,25.77
2018-07-09T21:12:23.301Z,25.72
2018-07-09T21:13:27.346Z,25.77
2018-07-09T21:14:31.280Z,25.75
2018-07-09T21:15:33.906Z,25.75
2018-07-09T21:16:36.707Z,25.72
2018-07-09T21:17:39.433Z,25.74
2018-07-09T21:18:45.457Z,25.69
2018-07-09T21:19:48.331Z,25.69
2018-07-09T21:20:51.674Z,25.63
2018-07-09T21:21:59.556Z,25.60
2018-07-09T21:23:02.951Z,25.58
2018-07-09T21:24:05.408Z,25.58
2018-07-09T21:25:07.900Z,25.71
2018-07-09T21:26:11.258Z,25.77
2018-07-09T21:27:15.261Z,25.75
2018-07-09T21:28:18.410Z,25.73
2018-07-09T21:29:22.075Z,25.72
2018-07-09T21:30:25.302Z,25.67
2018-07-09T21:31:29.944Z,25.66
2018-07-09T21:33:41.726Z,25.67
2018-07-09T21:34:44.307Z,25.67
